Details From ZUUU - Shuangliu
To VRMM - Male Intl
Flight Number -
Tags Generated
Created
Modified
Stats Distance 2,338 nm / 4,331 km
Max Altitude 0 ft / 0 m
Waypoints 4
Social Downloads 5
Likes 0
Share VATSIM

Download

Looking for another format? Having issues loading an existing format? Contact us
Advertisement - Login to hide

Notes

Generated

Route

ZUUU KL MLE42 VRMM

ID Type Via Altitude Latitude Longitude Leg Dist Tot Dist Heading (true) Name
O ZUUU APT - 0 ft / 0 m 30.56348˚ 103.94008˚ - 0 nm - -
KL NDB - 0 ft / 0 m 23.18747˚ 94.05494˚ 689 nm 689 nm 232° / 228° KALAY NDB
MLE42 FIX - 0 ft / 0 m 4.29758˚ 73.61472˚ 1640 nm 2330 nm 229° / 224° -
O VRMM APT - 0 ft / 0 m 4.20629˚ 73.52889˚ 7 nm 2338 nm 223° / 223° -

Altitude Profile

Advertisement - Login to hide

Weather


0- 5 10 15 20 25 30 35+ Temperature / ° C

Clouds and Precipitation
Forecast for 2017-12-16 06:00 UTC. Updated a few seconds ago

Ground ~20,000 ft ~40,000 ft Winds

ZUUU

Details ICAO ZUUU (CTU)
Name SHUANGLIU
Region China
Timezone Asia/Chongqing (UTC+8.0)
Stats Elevation 1,625 ft / 495 m (AMSL)
Location 30.578528° 103.947086°
Runways 1
Magnetic Variation 1.981° W

METAR

ZUUU 160500Z VRB02G07MPS CAVOK 12/M05 Q1035 NOSIG

Decode

TAF

Not found

Departure Runways

ID Width Length Bearing (true) Bearing (mag) Surface Threshold Offset Overrun Length
02 197 ft / 60 m 11,834 ft / 3,607 m 21.84° 23.82° Concrete 0 ft / 0 m 196 ft / 60 m
20 197 ft / 60 m 11,834 ft / 3,607 m 201.85° 203.83° Concrete 0 ft / 0 m 196 ft / 60 m

VRMM

Details ICAO VRMM (MLE)
Name MALE INTL
Region Maldives
Timezone Indian/Maldives (UTC+5.0)
Stats Elevation 6 ft / 2 m (AMSL)
Location 4.191832° 73.529128°
Runways 1
Magnetic Variation 2.834° W

METAR

VRMM 160500Z 09014KT 9999 FEW018TCU BKN280 30/25 Q1013 NOSIG

Decode

TAF

TAF VRMM 152300Z 1600/1706 08015KT 9999 SCT017TCU TEMPO 1600/1606 3000 TSRA FEW016 SCT017CB

Decode

Destination Runways

ID Width Length Bearing (true) Bearing (mag) Surface Threshold Offset Overrun Length
18 148 ft / 45 m 10,556 ft / 3,218 m 179.06° 181.89° Asphalt 328 ft / 100 m 201 ft / 61 m
36 148 ft / 45 m 10,556 ft / 3,218 m 359.06° 1.89° Asphalt 952 ft / 290 m 238 ft / 73 m

Approach Navaids

Runway Type Ident Frequency Range Bearing (true) Bearing (mag) Slope Elevation
36 Localiser IML 108.70 MHz 18 nm / 33 km 359.58° 2.41° - 5 ft / 2 m (AMSL)
36 Glidescope IML 108.70 MHz 10 nm / 19 km 359.06° 1.89° 3.00° 5 ft / 2 m (AMSL)
36 DME IML 108.70 MHz 18 nm / 33 km - - - 22 ft / 7 m (AMSL)

Popular Alternatives